createdAt,value
2023-03-21T00:01:24.354Z,55.62
2023-03-21T00:03:50.636Z,55.49
2023-03-21T00:06:16.930Z,54.99
2023-03-21T00:08:43.325Z,54.44
2023-03-21T00:11:09.633Z,55.02
2023-03-21T00:13:35.885Z,55.07
2023-03-21T00:16:07.983Z,54.93
2023-03-21T00:18:40.081Z,54.48
2023-03-21T00:21:37.703Z,54.67
2023-03-21T00:23:52.578Z,54.65
2023-03-21T00:26:18.866Z,55.22
2023-03-21T00:28:45.145Z,54.98
2023-03-21T00:31:11.402Z,55.19
2023-03-21T00:33:37.679Z,55.15
2023-03-21T00:36:05.763Z,54.64
2023-03-21T00:38:32.218Z,55.74
2023-03-21T00:41:04.744Z,55.09
2023-03-21T00:43:31.189Z,55.74
2023-03-21T00:45:57.445Z,55.63
2023-03-21T00:48:23.910Z,55.18
2023-03-21T00:50:50.217Z,55.26
2023-03-21T00:53:16.477Z,54.55
2023-03-21T00:55:42.783Z,54.68
2023-03-21T00:58:09.079Z,55.09
2023-03-21T01:00:35.410Z,55.48
2023-03-21T01:03:11.151Z,55.09
2023-03-21T01:05:44.065Z,55.75
2023-03-21T01:08:23.778Z,56.04
2023-03-21T01:10:53.025Z,56.09
2023-03-21T01:13:19.287Z,55.95
2023-03-21T01:15:45.566Z,55.76
2023-03-21T01:18:11.832Z,56.20
2023-03-21T01:20:38.109Z,55.84
2023-03-21T01:23:04.393Z,55.80
2023-03-21T01:25:30.687Z,56.10
2023-03-21T01:27:56.943Z,56.12
2023-03-21T01:30:24.845Z,56.78
2023-03-21T01:32:51.206Z,56.54
2023-03-21T01:35:17.470Z,56.09
2023-03-21T01:37:43.762Z,56.26
2023-03-21T01:40:10.034Z,56.06
2023-03-21T01:42:36.296Z,56.60
2023-03-21T01:45:02.566Z,56.33
2023-03-21T01:47:28.826Z,56.50
2023-03-21T01:49:55.075Z,56.64
2023-03-21T01:52:35.377Z,56.90
2023-03-21T01:55:02.584Z,57.30
2023-03-21T01:57:35.342Z,56.79
2023-03-21T02:00:07.454Z,57.07
2023-03-21T02:02:33.743Z,56.82
2023-03-21T02:04:59.997Z,57.21
2023-03-21T02:07:26.256Z,57.29
2023-03-21T02:09:52.548Z,57.11
2023-03-21T02:12:18.799Z,57.12
2023-03-21T02:14:45.070Z,56.68
2023-03-21T02:17:11.334Z,56.66
2023-03-21T02:19:47.662Z,57.67
2023-03-21T02:22:18.856Z,57.71
2023-03-21T02:24:48.957Z,57.02
2023-03-21T02:27:20.686Z,57.45
2023-03-21T02:29:46.997Z,57.60
2023-03-21T02:32:22.575Z,57.83
2023-03-21T02:34:54.569Z,57.90
2023-03-21T02:37:23.622Z,57.99
2023-03-21T02:39:55.090Z,58.47
2023-03-21T02:42:21.369Z,58.22
2023-03-21T02:44:47.642Z,57.95
2023-03-21T02:47:14.047Z,58.13
2023-03-21T02:49:40.402Z,57.52
2023-03-21T02:52:15.662Z,57.65
2023-03-21T02:54:48.562Z,57.33
2023-03-21T02:57:15.089Z,57.44
2023-03-21T02:59:51.667Z,57.08
2023-03-21T03:02:19.982Z,57.19
2023-03-21T03:04:46.263Z,57.20
2023-03-21T03:07:12.514Z,57.17
2023-03-21T03:09:38.784Z,57.25
2023-03-21T03:12:05.221Z,56.96
2023-03-21T03:17:17.749Z,56.85
2023-03-21T03:19:50.011Z,57.00
2023-03-21T03:22:16.990Z,56.69
2023-03-21T03:24:43.433Z,56.62
2023-03-21T03:27:09.783Z,56.79
2023-03-21T03:29:37.301Z,56.91
2023-03-21T03:32:03.588Z,56.88
2023-03-21T03:34:30.091Z,57.43
2023-03-21T03:36:56.496Z,56.90
2023-03-21T03:39:22.894Z,57.27
2023-03-21T03:42:15.384Z,57.15
2023-03-21T03:44:35.451Z,57.21
2023-03-21T03:47:01.738Z,57.13
2023-03-21T03:49:28.011Z,57.56
2023-03-21T03:51:54.299Z,57.55
2023-03-21T03:54:20.634Z,57.64
2023-03-21T03:56:46.913Z,58.49
2023-03-21T03:59:13.175Z,58.49
2023-03-21T04:01:39.489Z,58.34
2023-03-21T04:04:12.929Z,58.04
2023-03-21T04:06:39.739Z,58.67
2023-03-21T04:09:18.572Z,58.07
2023-03-21T04:11:46.605Z,57.72
2023-03-21T04:14:13.842Z,57.42
2023-03-21T04:16:40.163Z,57.69
2023-03-21T04:19:06.472Z,57.38
2023-03-21T04:21:32.766Z,58.07
2023-03-21T04:23:59.047Z,58.19
2023-03-21T04:26:25.294Z,57.87
2023-03-21T04:28:51.556Z,58.33
2023-03-21T04:31:25.686Z,58.30
2023-03-21T04:33:52.556Z,58.08
2023-03-21T04:36:18.855Z,57.98
2023-03-21T04:38:45.140Z,58.16
2023-03-21T04:41:11.402Z,58.28
2023-03-21T04:43:37.666Z,58.08
2023-03-21T04:46:03.938Z,58.34
2023-03-21T04:48:30.223Z,58.08
2023-03-21T04:50:56.491Z,57.96
2023-03-21T04:53:22.750Z,58.07
2023-03-21T04:55:52.429Z,58.60
2023-03-21T04:58:19.769Z,58.47
2023-03-21T05:00:46.037Z,58.25
2023-03-21T05:03:12.312Z,58.04
2023-03-21T05:05:38.929Z,58.26
2023-03-21T05:08:05.377Z,58.34
2023-03-21T05:10:31.664Z,58.74
2023-03-21T05:12:57.945Z,58.63
2023-03-21T05:15:24.202Z,58.96
2023-03-21T05:17:50.441Z,59.11
2023-03-21T05:20:16.699Z,58.69
2023-03-21T05:22:42.966Z,58.19
2023-03-21T05:25:09.249Z,58.91
2023-03-21T05:27:35.502Z,58.69
2023-03-21T05:30:01.783Z,58.73
2023-03-21T05:32:28.066Z,58.30
2023-03-21T05:34:54.350Z,58.49
2023-03-21T05:37:20.599Z,58.40
2023-03-21T05:39:46.862Z,58.42
2023-03-21T05:42:13.134Z,58.18
2023-03-21T05:44:39.375Z,58.50
2023-03-21T05:47:05.667Z,58.40
2023-03-21T05:49:31.924Z,58.25
2023-03-21T05:51:58.162Z,58.07
2023-03-21T05:54:24.404Z,58.43
2023-03-21T05:56:50.671Z,57.94
2023-03-21T05:59:16.977Z,58.23
2023-03-21T06:01:43.235Z,58.79
2023-03-21T06:04:09.574Z,58.65
2023-03-21T06:06:35.899Z,58.87
2023-03-21T06:09:02.177Z,58.68
2023-03-21T06:11:28.463Z,58.98
2023-03-21T06:13:54.708Z,58.88
2023-03-21T06:16:21.076Z,58.62
2023-03-21T06:18:47.359Z,58.70
2023-03-21T06:21:13.621Z,59.00
2023-03-21T06:23:39.893Z,58.56
2023-03-21T06:26:06.219Z,58.89
2023-03-21T06:28:32.478Z,59.30
2023-03-21T06:30:58.771Z,58.75
2023-03-21T06:33:25.070Z,58.67
2023-03-21T06:35:51.397Z,58.86
2023-03-21T06:38:17.832Z,58.78
2023-03-21T06:40:44.103Z,58.66
2023-03-21T06:43:10.411Z,58.60
2023-03-21T06:45:37.041Z,58.54
2023-03-21T06:48:03.566Z,58.66
2023-03-21T06:50:29.820Z,58.76
2023-03-21T06:52:56.058Z,58.70
2023-03-21T06:55:22.325Z,58.62
2023-03-21T06:57:48.610Z,58.34
2023-03-21T07:00:14.873Z,58.76
2023-03-21T07:02:41.182Z,59.01
2023-03-21T07:05:07.485Z,58.85
2023-03-21T07:07:33.813Z,58.87
2023-03-21T07:10:00.137Z,59.29
2023-03-21T07:12:26.402Z,59.31
2023-03-21T07:14:52.668Z,59.60
2023-03-21T07:17:18.969Z,59.32
2023-03-21T07:19:45.230Z,59.15
2023-03-21T07:22:11.523Z,59.67
2023-03-21T07:24:37.793Z,59.01
2023-03-21T07:27:04.059Z,59.56
2023-03-21T07:29:30.399Z,59.37
2023-03-21T07:31:56.724Z,59.76
2023-03-21T07:34:23.084Z,59.52
2023-03-21T07:36:49.346Z,59.28
2023-03-21T07:39:15.627Z,59.42
2023-03-21T07:41:41.892Z,59.33
2023-03-21T07:44:08.164Z,59.45
2023-03-21T07:46:34.452Z,59.46
2023-03-21T07:49:00.736Z,58.52
2023-03-21T07:51:27.047Z,59.48
2023-03-21T07:53:53.320Z,59.38
2023-03-21T07:56:19.590Z,59.60
2023-03-21T07:58:45.893Z,59.43
2023-03-21T08:01:12.230Z,59.91
2023-03-21T08:03:38.482Z,60.08
2023-03-21T08:06:04.778Z,59.88
2023-03-21T08:08:31.022Z,59.38
2023-03-21T08:10:57.286Z,59.44
2023-03-21T08:13:23.548Z,59.50
2023-03-21T08:15:49.818Z,58.89
2023-03-21T08:18:16.083Z,58.86
2023-03-21T08:20:42.334Z,59.57
2023-03-21T08:23:08.602Z,59.58
2023-03-21T08:25:34.930Z,59.17
2023-03-21T08:28:01.271Z,59.37
2023-03-21T08:30:27.586Z,59.60
2023-03-21T08:32:53.927Z,58.26
2023-03-21T08:35:20.251Z,59.22
2023-03-21T08:37:46.533Z,58.17
2023-03-21T08:40:12.786Z,60.13
2023-03-21T08:42:39.078Z,59.64
2023-03-21T08:45:05.384Z,60.08
2023-03-21T08:47:31.655Z,59.79
2023-03-21T08:49:59.171Z,59.83
2023-03-21T08:52:25.538Z,59.05
2023-03-21T08:54:51.805Z,57.49
2023-03-21T08:57:18.059Z,58.73
2023-03-21T08:59:44.310Z,59.40
2023-03-21T09:02:10.646Z,58.01
2023-03-21T09:04:36.976Z,58.29
2023-03-21T09:07:03.262Z,58.65
2023-03-21T09:09:29.518Z,58.40
2023-03-21T09:11:55.764Z,58.07
2023-03-21T09:14:28.478Z,57.58
2023-03-21T09:16:55.107Z,57.76
2023-03-21T09:19:21.393Z,57.98
2023-03-21T09:21:47.690Z,57.52
2023-03-21T09:24:13.931Z,56.62
2023-03-21T09:26:40.186Z,56.54
2023-03-21T09:29:06.466Z,56.61
2023-03-21T09:31:32.765Z,56.36
2023-03-21T09:33:59.552Z,56.45
2023-03-21T09:36:25.850Z,56.54
2023-03-21T09:38:52.113Z,56.36
2023-03-21T09:41:18.390Z,56.65
2023-03-21T09:43:44.652Z,55.87
2023-03-21T09:46:10.935Z,55.92
2023-03-21T09:48:39.671Z,55.96
2023-03-21T09:51:10.399Z,55.20
2023-03-21T09:53:36.681Z,55.09
2023-03-21T09:56:02.979Z,55.01
2023-03-21T09:58:29.257Z,55.13
2023-03-21T10:00:55.669Z,54.55
2023-03-21T10:03:21.969Z,54.03
2023-03-21T10:05:48.272Z,54.48
2023-03-21T10:08:14.525Z,53.21
2023-03-21T10:10:40.921Z,54.01
2023-03-21T10:13:07.174Z,52.71
2023-03-21T10:15:33.413Z,52.48
2023-03-21T10:17:59.692Z,53.02
2023-03-21T10:20:25.983Z,53.09
2023-03-21T10:22:52.264Z,52.44
2023-03-21T10:25:18.571Z,52.28
2023-03-21T10:27:44.875Z,52.28
2023-03-21T10:30:11.138Z,51.89
2023-03-21T10:32:37.448Z,53.04
2023-03-21T10:35:03.773Z,51.35
2023-03-21T10:37:30.038Z,51.37
2023-03-21T10:39:56.305Z,52.26
2023-03-21T10:42:22.570Z,52.24
2023-03-21T10:44:48.907Z,51.19
2023-03-21T10:47:15.331Z,51.67
2023-03-21T10:50:05.796Z,52.24
2023-03-21T10:52:27.910Z,50.76
2023-03-21T10:54:54.161Z,49.73
2023-03-21T10:57:20.442Z,50.42
2023-03-21T10:59:46.771Z,49.84
2023-03-21T11:02:13.073Z,50.40
2023-03-21T11:04:39.373Z,50.53
2023-03-21T11:07:05.630Z,49.81
2023-03-21T11:09:31.932Z,48.51
2023-03-21T11:11:58.211Z,48.49
2023-03-21T11:14:24.468Z,48.50
2023-03-21T11:16:51.059Z,49.06
2023-03-21T11:19:17.383Z,48.84
2023-03-21T11:21:43.677Z,47.75
2023-03-21T11:24:09.959Z,51.22
2023-03-21T11:26:36.227Z,51.49
2023-03-21T11:29:02.522Z,49.90
2023-03-21T11:31:28.818Z,50.08
2023-03-21T11:33:55.178Z,49.88
2023-03-21T11:36:21.449Z,48.54
2023-03-21T11:38:47.721Z,48.11
2023-03-21T11:41:14.044Z,47.66
2023-03-21T11:43:40.314Z,48.15
2023-03-21T11:46:06.931Z,47.04
2023-03-21T11:48:33.214Z,48.04
2023-03-21T11:50:59.519Z,48.65
2023-03-21T11:53:25.839Z,48.53
2023-03-21T11:55:52.094Z,48.03
2023-03-21T11:58:18.359Z,47.96
2023-03-21T12:00:44.628Z,47.02
2023-03-21T12:03:10.897Z,47.61
2023-03-21T12:05:37.641Z,45.33
2023-03-21T12:08:04.050Z,44.62
2023-03-21T12:10:30.319Z,45.16
2023-03-21T12:12:56.592Z,44.88
2023-03-21T12:15:22.841Z,44.71
2023-03-21T12:17:49.103Z,45.83
2023-03-21T12:20:15.389Z,44.07
2023-03-21T12:22:41.640Z,45.33
2023-03-21T12:25:07.941Z,44.11
2023-03-21T12:27:34.222Z,44.96
2023-03-21T12:30:00.486Z,46.16
2023-03-21T12:32:26.763Z,46.36
2023-03-21T12:34:53.066Z,45.30
2023-03-21T12:37:19.313Z,44.00
2023-03-21T12:39:45.551Z,44.30
2023-03-21T12:42:11.840Z,44.15
2023-03-21T12:44:38.144Z,43.28
2023-03-21T12:47:04.472Z,43.09
2023-03-21T12:49:30.758Z,44.13
2023-03-21T12:51:57.053Z,45.05
2023-03-21T12:54:23.374Z,43.77
2023-03-21T12:56:49.672Z,43.82
2023-03-21T12:59:15.951Z,45.30
2023-03-21T13:01:42.203Z,43.38
2023-03-21T13:04:08.570Z,45.05
2023-03-21T13:06:34.894Z,46.68
2023-03-21T13:09:01.159Z,44.37
2023-03-21T13:11:27.442Z,44.67
2023-03-21T13:13:53.706Z,44.83
2023-03-21T13:16:20.020Z,43.23
2023-03-21T13:18:46.362Z,43.01
2023-03-21T13:21:12.707Z,42.14
2023-03-21T13:23:38.966Z,42.80
2023-03-21T13:26:05.206Z,43.66
2023-03-21T13:28:31.461Z,43.83
2023-03-21T13:30:57.729Z,43.49
2023-03-21T13:33:24.042Z,43.04
2023-03-21T13:35:50.488Z,42.85
2023-03-21T13:38:16.832Z,43.68
2023-03-21T13:40:43.137Z,44.27
2023-03-21T13:43:11.968Z,42.37
2023-03-21T13:45:40.371Z,42.62
2023-03-21T13:48:06.856Z,43.17
2023-03-21T13:50:33.168Z,43.05
2023-03-21T13:52:59.439Z,43.38
2023-03-21T13:55:25.694Z,42.04
2023-03-21T13:57:52.007Z,43.28
2023-03-21T14:00:18.303Z,43.46
2023-03-21T14:02:44.577Z,43.87
2023-03-21T14:05:10.942Z,44.03
2023-03-21T14:07:37.256Z,43.57
2023-03-21T14:10:05.046Z,43.35
2023-03-21T14:12:32.103Z,42.28
2023-03-21T14:15:06.800Z,42.09
2023-03-21T14:17:36.678Z,41.99
2023-03-21T14:20:02.982Z,41.83
2023-03-21T14:22:29.257Z,43.78
2023-03-21T14:24:55.505Z,42.79
2023-03-21T14:27:21.761Z,42.49
2023-03-21T14:29:48.053Z,42.13
2023-03-21T14:32:14.292Z,41.03
2023-03-21T14:34:42.064Z,42.34
2023-03-21T14:37:09.656Z,40.53
2023-03-21T14:39:35.929Z,41.57
2023-03-21T14:42:02.214Z,41.61
2023-03-21T14:44:28.467Z,41.66
2023-03-21T14:46:54.724Z,41.12
2023-03-21T14:49:20.996Z,40.96
2023-03-21T14:51:47.262Z,42.20
2023-03-21T14:54:13.523Z,40.45
2023-03-21T14:56:39.776Z,41.59
2023-03-21T14:59:06.041Z,41.02
2023-03-21T15:01:32.330Z,41.85
2023-03-21T15:04:00.458Z,41.63
2023-03-21T15:06:26.901Z,41.95
2023-03-21T15:08:53.175Z,42.78
2023-03-21T15:11:19.422Z,42.18
2023-03-21T15:13:45.702Z,41.50
2023-03-21T15:16:12.013Z,41.49
2023-03-21T15:18:38.394Z,40.87
2023-03-21T15:21:04.652Z,41.76
2023-03-21T15:23:30.918Z,40.28
2023-03-21T15:25:57.253Z,41.46
2023-03-21T15:28:23.496Z,40.50
2023-03-21T15:30:49.769Z,41.56
2023-03-21T15:33:16.101Z,41.10
2023-03-21T15:35:42.861Z,42.03
2023-03-21T15:38:09.303Z,41.90
2023-03-21T15:40:35.705Z,43.57
2023-03-21T15:43:02.010Z,44.58
2023-03-21T15:45:28.267Z,44.77
2023-03-21T15:47:54.595Z,44.56
2023-03-21T15:50:20.860Z,43.99
2023-03-21T15:52:47.133Z,44.05
2023-03-21T15:55:13.417Z,44.08
2023-03-21T15:57:39.686Z,44.85
2023-03-21T16:00:05.948Z,44.20
2023-03-21T16:02:32.214Z,43.59
2023-03-21T16:04:58.465Z,44.41
2023-03-21T16:07:24.722Z,44.13
2023-03-21T16:09:50.979Z,43.70
2023-03-21T16:12:18.928Z,43.70
2023-03-21T16:14:45.307Z,45.01
2023-03-21T16:17:11.562Z,44.41
2023-03-21T16:19:37.829Z,44.12
2023-03-21T16:22:04.138Z,43.90
2023-03-21T16:24:30.423Z,43.69
2023-03-21T16:26:56.710Z,44.46
2023-03-21T16:29:23.009Z,44.56
2023-03-21T16:31:49.351Z,44.12
2023-03-21T16:34:15.707Z,44.41
2023-03-21T16:36:41.957Z,44.19
2023-03-21T16:39:09.429Z,44.99
2023-03-21T16:41:35.723Z,44.39
2023-03-21T16:44:01.961Z,44.10
2023-03-21T16:46:28.259Z,42.82
2023-03-21T16:48:54.543Z,43.02
2023-03-21T16:51:20.803Z,42.73
2023-03-21T16:53:47.093Z,42.81
2023-03-21T16:56:13.371Z,43.75
2023-03-21T16:58:39.642Z,44.20
2023-03-21T17:01:05.950Z,43.67
2023-03-21T17:03:32.279Z,44.41
2023-03-21T17:05:58.571Z,43.93
2023-03-21T17:08:24.838Z,44.31
2023-03-21T17:10:51.106Z,44.44
2023-03-21T17:13:17.407Z,43.86
2023-03-21T17:15:43.715Z,43.82
2023-03-21T17:18:10.051Z,44.71
2023-03-21T17:20:36.707Z,45.00
2023-03-21T17:23:03.209Z,44.90
2023-03-21T17:25:29.487Z,45.55
2023-03-21T17:27:55.857Z,45.88
2023-03-21T17:30:22.184Z,46.56
2023-03-21T17:32:48.470Z,46.93
2023-03-21T17:35:14.958Z,47.06
2023-03-21T17:37:41.257Z,47.26
2023-03-21T17:40:07.717Z,47.13
2023-03-21T17:42:34.076Z,47.34
2023-03-21T17:45:00.335Z,47.53
2023-03-21T17:47:26.604Z,47.58
2023-03-21T17:49:52.911Z,47.44
2023-03-21T17:52:19.211Z,47.25
2023-03-21T17:54:45.495Z,47.66
2023-03-21T17:57:11.749Z,47.62
2023-03-21T17:59:38.051Z,47.35
2023-03-21T18:02:04.384Z,46.77
2023-03-21T18:04:30.702Z,46.72
2023-03-21T18:06:57.437Z,47.04
2023-03-21T18:09:23.766Z,47.57
2023-03-21T18:11:50.157Z,47.08
2023-03-21T18:14:19.209Z,47.05
2023-03-21T18:16:47.841Z,47.69
2023-03-21T18:19:14.156Z,47.53
2023-03-21T18:21:40.426Z,47.67
2023-03-21T18:24:06.753Z,47.78
2023-03-21T18:26:33.079Z,47.81
2023-03-21T18:32:02.558Z,47.96
2023-03-21T18:34:31.535Z,48.23
2023-03-21T18:36:57.822Z,47.67
2023-03-21T18:39:24.102Z,47.07
2023-03-21T18:41:50.350Z,47.64
2023-03-21T18:44:22.106Z,47.24
2023-03-21T18:46:51.320Z,46.77
2023-03-21T18:52:03.856Z,47.38
2023-03-21T18:54:30.153Z,47.04
2023-03-21T18:59:42.685Z,46.57
2023-03-21T19:02:09.025Z,46.57
2023-03-21T19:04:35.381Z,45.69
2023-03-21T19:07:02.272Z,46.58
2023-03-21T19:09:32.001Z,46.88
2023-03-21T19:11:58.508Z,46.64
2023-03-21T19:14:24.828Z,46.72
2023-03-21T19:19:37.410Z,48.10
2023-03-21T19:22:03.729Z,47.83
2023-03-21T19:24:30.076Z,47.55
2023-03-21T19:26:56.365Z,47.59
2023-03-21T19:29:22.646Z,47.83
2023-03-21T19:31:48.989Z,48.36
2023-03-21T19:34:15.298Z,48.51
2023-03-21T19:36:45.523Z,49.48
2023-03-21T19:39:15.579Z,49.95
2023-03-21T19:41:42.650Z,49.89
2023-03-21T19:44:08.930Z,50.11
2023-03-21T19:46:35.198Z,49.91
2023-03-21T19:49:01.541Z,49.85
2023-03-21T19:51:30.052Z,50.22
2023-03-21T19:53:57.018Z,50.41
2023-03-21T19:56:26.742Z,50.47
2023-03-21T19:58:53.839Z,50.32
2023-03-21T20:01:20.292Z,50.64
2023-03-21T20:03:46.577Z,49.99
2023-03-21T20:06:12.843Z,50.64
2023-03-21T20:09:05.438Z,50.58
2023-03-21T20:11:25.493Z,50.36
2023-03-21T20:13:51.806Z,50.63
2023-03-21T20:16:18.153Z,50.59
2023-03-21T20:18:44.467Z,50.06
2023-03-21T20:21:17.765Z,50.34
2023-03-21T20:23:44.644Z,50.29
2023-03-21T20:26:10.952Z,50.06
2023-03-21T20:28:38.194Z,51.00
2023-03-21T20:31:04.654Z,50.88
2023-03-21T20:33:31.040Z,51.90
2023-03-21T20:38:46.603Z,51.20
2023-03-21T20:41:12.975Z,50.88
2023-03-21T20:46:25.652Z,50.92
2023-03-21T20:48:51.962Z,51.46
2023-03-21T20:54:04.529Z,51.85
2023-03-21T20:56:38.887Z,52.06
2023-03-21T20:59:16.698Z,51.79
2023-03-21T21:01:47.091Z,51.85
2023-03-21T21:04:15.164Z,52.11
2023-03-21T21:06:41.611Z,52.11
2023-03-21T21:09:07.960Z,52.42
2023-03-21T21:14:20.479Z,52.39
2023-03-21T21:16:46.751Z,52.41
2023-03-21T21:19:13.024Z,51.59
2023-03-21T21:21:39.410Z,52.05
2023-03-21T21:24:07.615Z,51.19
2023-03-21T21:26:34.051Z,51.66
2023-03-21T21:29:00.333Z,51.71
2023-03-21T21:31:26.669Z,51.56
2023-03-21T21:33:53.017Z,51.45
2023-03-21T21:36:19.290Z,50.96
2023-03-21T21:38:45.569Z,51.04
2023-03-21T21:41:11.824Z,51.08
2023-03-21T21:43:39.286Z,51.36
2023-03-21T21:46:05.525Z,50.48
2023-03-21T21:48:31.800Z,50.91
2023-03-21T21:50:58.084Z,51.45
2023-03-21T21:53:24.367Z,52.05
2023-03-21T21:55:50.642Z,51.67
2023-03-21T21:58:16.917Z,51.39
2023-03-21T22:00:43.211Z,51.40
2023-03-21T22:03:09.603Z,51.74
2023-03-21T22:05:35.920Z,52.12
2023-03-21T22:08:02.476Z,51.63
2023-03-21T22:10:28.738Z,52.17
2023-03-21T22:12:55.012Z,51.35
2023-03-21T22:15:21.269Z,51.85
2023-03-21T22:17:47.540Z,51.57
2023-03-21T22:20:13.831Z,52.00
2023-03-21T22:22:40.125Z,52.44
2023-03-21T22:25:06.427Z,51.71
2023-03-21T22:27:32.716Z,51.47
2023-03-21T22:29:58.983Z,51.76
2023-03-21T22:32:25.278Z,52.58
2023-03-21T22:34:51.619Z,52.15
2023-03-21T22:37:17.900Z,52.30
2023-03-21T22:39:44.180Z,51.83
2023-03-21T22:42:10.461Z,52.28
2023-03-21T22:44:36.751Z,52.12
2023-03-21T22:47:03.032Z,52.01
2023-03-21T22:49:29.297Z,52.75
2023-03-21T22:51:55.567Z,52.34
2023-03-21T22:54:21.871Z,52.77
2023-03-21T22:56:48.150Z,52.62
2023-03-21T22:59:14.415Z,52.02
2023-03-21T23:01:40.680Z,52.05
2023-03-21T23:04:06.986Z,53.07
2023-03-21T23:06:33.292Z,52.90
2023-03-21T23:08:59.550Z,52.30
2023-03-21T23:11:25.912Z,52.45
2023-03-21T23:14:06.592Z,52.96
2023-03-21T23:16:33.736Z,52.65
2023-03-21T23:19:00.021Z,52.84
2023-03-21T23:21:26.298Z,51.81
2023-03-21T23:23:52.613Z,52.48
2023-03-21T23:26:18.895Z,52.79
2023-03-21T23:28:45.172Z,52.27
2023-03-21T23:31:11.573Z,52.69
2023-03-21T23:33:37.876Z,51.73
2023-03-21T23:36:04.143Z,52.69
2023-03-21T23:38:30.394Z,52.77
2023-03-21T23:40:56.672Z,51.93
2023-03-21T23:43:22.955Z,52.33
2023-03-21T23:45:49.242Z,52.72
2023-03-21T23:48:15.564Z,52.78
2023-03-21T23:50:42.192Z,53.22
2023-03-21T23:53:08.507Z,53.21
2023-03-21T23:55:34.796Z,53.11
2023-03-21T23:58:01.074Z,53.50
